sensor_id;sensor_type;location;lat;lon;timestamp;temperature;humidity
12948;DHT22;6539;49.476;8.484;2023-02-01T00:00:37;7.20;99.90
12948;DHT22;6539;49.476;8.484;2023-02-01T00:03:05;7.20;99.90
12948;DHT22;6539;49.476;8.484;2023-02-01T00:05:33;7.10;99.90
12948;DHT22;6539;49.476;8.484;2023-02-01T00:07:59;7.10;99.90
12948;DHT22;6539;49.476;8.484;2023-02-01T00:10:27;7.20;99.90
12948;DHT22;6539;49.476;8.484;2023-02-01T00:12:53;7.40;99.90
12948;DHT22;6539;49.476;8.484;2023-02-01T00:15:18;7.30;99.90
12948;DHT22;6539;49.476;8.484;2023-02-01T00:17:46;6.90;99.90
12948;DHT22;6539;49.476;8.484;2023-02-01T00:20:14;7.00;99.90
12948;DHT22;6539;49.476;8.484;2023-02-01T00:22:39;6.90;99.90
12948;DHT22;6539;49.476;8.484;2023-02-01T00:25:06;7.00;99.90
12948;DHT22;6539;49.476;8.484;2023-02-01T00:27:32;6.80;99.90
12948;DHT22;6539;49.476;8.484;2023-02-01T00:29:58;7.00;99.90
12948;DHT22;6539;49.476;8.484;2023-02-01T00:32:23;7.30;99.90
12948;DHT22;6539;49.476;8.484;2023-02-01T00:37:17;7.00;99.90
12948;DHT22;6539;49.476;8.484;2023-02-01T00:39:43;7.20;99.90
12948;DHT22;6539;49.476;8.484;2023-02-01T00:42:09;7.20;99.90
12948;DHT22;6539;49.476;8.484;2023-02-01T00:44:37;7.30;99.90
12948;DHT22;6539;49.476;8.484;2023-02-01T00:47:03;7.30;99.90
12948;DHT22;6539;49.476;8.484;2023-02-01T00:49:29;7.10;99.90
12948;DHT22;6539;49.476;8.484;2023-02-01T00:51:54;7.10;99.90
12948;DHT22;6539;49.476;8.484;2023-02-01T00:54:20;6.90;99.90
12948;DHT22;6539;49.476;8.484;2023-02-01T00:56:46;6.90;99.90
12948;DHT22;6539;49.476;8.484;2023-02-01T01:01:38;7.00;99.90
12948;DHT22;6539;49.476;8.484;2023-02-01T01:04:12;7.00;99.90
12948;DHT22;6539;49.476;8.484;2023-02-01T01:06:37;6.80;99.90
12948;DHT22;6539;49.476;8.484;2023-02-01T01:09:05;7.00;99.90
12948;DHT22;6539;49.476;8.484;2023-02-01T01:11:37;7.20;99.90
12948;DHT22;6539;49.476;8.484;2023-02-01T01:14:06;7.20;99.90
12948;DHT22;6539;49.476;8.484;2023-02-01T01:16:33;7.70;99.90
12948;DHT22;6539;49.476;8.484;2023-02-01T01:19:00;7.30;99.90
12948;DHT22;6539;49.476;8.484;2023-02-01T01:21:28;7.30;99.90
12948;DHT22;6539;49.476;8.484;2023-02-01T01:23:55;7.10;99.90
12948;DHT22;6539;49.476;8.484;2023-02-01T01:26:24;7.00;99.90
12948;DHT22;6539;49.476;8.484;2023-02-01T01:28:52;7.20;99.90
12948;DHT22;6539;49.476;8.484;2023-02-01T01:31:22;7.20;99.90
12948;DHT22;6539;49.476;8.484;2023-02-01T01:33:54;7.10;99.90
12948;DHT22;6539;49.476;8.484;2023-02-01T01:36:23;7.40;99.90
12948;DHT22;6539;49.476;8.484;2023-02-01T01:38:50;7.40;99.90
12948;DHT22;6539;49.476;8.484;2023-02-01T01:41:19;7.40;99.90
12948;DHT22;6539;49.476;8.484;2023-02-01T01:46:25;7.20;99.90
12948;DHT22;6539;49.476;8.484;2023-02-01T01:49:09;7.30;99.90
12948;DHT22;6539;49.476;8.484;2023-02-01T01:52:03;7.00;99.90
12948;DHT22;6539;49.476;8.484;2023-02-01T01:54:38;7.20;99.90
12948;DHT22;6539;49.476;8.484;2023-02-01T01:57:17;7.40;99.90
12948;DHT22;6539;49.476;8.484;2023-02-01T02:00:05;7.10;99.90
12948;DHT22;6539;49.476;8.484;2023-02-01T02:02:34;7.30;99.90
12948;DHT22;6539;49.476;8.484;2023-02-01T02:05:03;7.00;99.90
12948;DHT22;6539;49.476;8.484;2023-02-01T02:07:35;7.60;99.90
12948;DHT22;6539;49.476;8.484;2023-02-01T02:10:08;6.90;99.90
12948;DHT22;6539;49.476;8.484;2023-02-01T02:12:39;7.30;99.90
12948;DHT22;6539;49.476;8.484;2023-02-01T02:15:13;6.90;99.90
12948;DHT22;6539;49.476;8.484;2023-02-01T02:32:45;7.30;99.90
12948;DHT22;6539;49.476;8.484;2023-02-01T02:38:33;7.70;99.90
12948;DHT22;6539;49.476;8.484;2023-02-01T02:45:03;6.90;99.90
12948;DHT22;6539;49.476;8.484;2023-02-01T02:47:42;7.00;99.90
12948;DHT22;6539;49.476;8.484;2023-02-01T02:53:29;7.20;99.90
12948;DHT22;6539;49.476;8.484;2023-02-01T02:56:21;6.90;99.90
12948;DHT22;6539;49.476;8.484;2023-02-01T02:59:09;7.10;99.90
12948;DHT22;6539;49.476;8.484;2023-02-01T03:01:57;7.30;99.90
12948;DHT22;6539;49.476;8.484;2023-02-01T03:04:44;7.20;99.90
12948;DHT22;6539;49.476;8.484;2023-02-01T03:10:40;7.40;99.90
12948;DHT22;6539;49.476;8.484;2023-02-01T03:13:36;7.30;99.90
12948;DHT22;6539;49.476;8.484;2023-02-01T03:16:28;7.40;99.90
12948;DHT22;6539;49.476;8.484;2023-02-01T03:19:06;7.00;99.90
12948;DHT22;6539;49.476;8.484;2023-02-01T03:27:14;7.20;99.90
12948;DHT22;6539;49.476;8.484;2023-02-01T03:32:36;7.30;99.90
12948;DHT22;6539;49.476;8.484;2023-02-01T03:38:22;7.40;99.90
12948;DHT22;6539;49.476;8.484;2023-02-01T03:47:12;7.60;99.90
12948;DHT22;6539;49.476;8.484;2023-02-01T03:49:44;7.20;99.90
12948;DHT22;6539;49.476;8.484;2023-02-01T03:52:50;7.50;99.90
12948;DHT22;6539;49.476;8.484;2023-02-01T03:55:23;7.30;99.90
12948;DHT22;6539;49.476;8.484;2023-02-01T04:00:35;7.60;99.90
12948;DHT22;6539;49.476;8.484;2023-02-01T04:03:02;7.60;99.90
12948;DHT22;6539;49.476;8.484;2023-02-01T04:08:01;7.50;99.90
12948;DHT22;6539;49.476;8.484;2023-02-01T04:10:27;7.60;99.90
12948;DHT22;6539;49.476;8.484;2023-02-01T04:12:53;7.60;99.90
12948;DHT22;6539;49.476;8.484;2023-02-01T04:15:19;7.30;99.90
12948;DHT22;6539;49.476;8.484;2023-02-01T04:17:45;7.40;99.90
12948;DHT22;6539;49.476;8.484;2023-02-01T04:20:11;7.40;99.90
12948;DHT22;6539;49.476;8.484;2023-02-01T04:22:39;7.40;99.90
12948;DHT22;6539;49.476;8.484;2023-02-01T04:25:07;7.70;99.90
12948;DHT22;6539;49.476;8.484;2023-02-01T04:27:34;7.60;99.90
12948;DHT22;6539;49.476;8.484;2023-02-01T04:30:00;7.70;99.90
12948;DHT22;6539;49.476;8.484;2023-02-01T04:32:26;7.70;99.90
12948;DHT22;6539;49.476;8.484;2023-02-01T04:34:54;7.70;99.90
12948;DHT22;6539;49.476;8.484;2023-02-01T04:37:19;7.60;99.90
12948;DHT22;6539;49.476;8.484;2023-02-01T04:39:45;7.70;99.90
12948;DHT22;6539;49.476;8.484;2023-02-01T04:42:13;7.70;99.90
12948;DHT22;6539;49.476;8.484;2023-02-01T04:44:41;7.60;99.90
12948;DHT22;6539;49.476;8.484;2023-02-01T04:47:07;7.90;99.90
12948;DHT22;6539;49.476;8.484;2023-02-01T04:49:34;7.70;99.90
12948;DHT22;6539;49.476;8.484;2023-02-01T04:52:03;7.90;99.90
12948;DHT22;6539;49.476;8.484;2023-02-01T04:54:29;7.60;99.90
12948;DHT22;6539;49.476;8.484;2023-02-01T04:56:55;8.00;99.90
12948;DHT22;6539;49.476;8.484;2023-02-01T04:59:20;7.60;99.90
12948;DHT22;6539;49.476;8.484;2023-02-01T05:01:49;7.90;99.90
12948;DHT22;6539;49.476;8.484;2023-02-01T05:04:14;7.90;99.90
12948;DHT22;6539;49.476;8.484;2023-02-01T05:06:44;7.50;99.90
12948;DHT22;6539;49.476;8.484;2023-02-01T05:09:10;7.70;99.90
12948;DHT22;6539;49.476;8.484;2023-02-01T05:11:39;8.00;99.90
12948;DHT22;6539;49.476;8.484;2023-02-01T05:14:43;7.60;99.90
12948;DHT22;6539;49.476;8.484;2023-02-01T05:17:11;7.80;99.90
12948;DHT22;6539;49.476;8.484;2023-02-01T05:19:37;7.70;99.90
12948;DHT22;6539;49.476;8.484;2023-02-01T05:22:02;7.40;99.90
12948;DHT22;6539;49.476;8.484;2023-02-01T05:24:28;7.40;99.90
12948;DHT22;6539;49.476;8.484;2023-02-01T05:26:54;7.60;99.90
12948;DHT22;6539;49.476;8.484;2023-02-01T05:29:20;7.50;99.90
12948;DHT22;6539;49.476;8.484;2023-02-01T05:31:55;7.40;99.90
12948;DHT22;6539;49.476;8.484;2023-02-01T05:34:21;7.50;99.90
12948;DHT22;6539;49.476;8.484;2023-02-01T05:36:46;7.60;99.90
12948;DHT22;6539;49.476;8.484;2023-02-01T05:41:38;7.40;99.90
12948;DHT22;6539;49.476;8.484;2023-02-01T05:44:04;7.40;99.90
12948;DHT22;6539;49.476;8.484;2023-02-01T05:46:33;7.30;99.90
12948;DHT22;6539;49.476;8.484;2023-02-01T05:49:05;7.50;99.90
12948;DHT22;6539;49.476;8.484;2023-02-01T05:51:30;7.40;99.90
12948;DHT22;6539;49.476;8.484;2023-02-01T05:53:56;7.60;99.90
12948;DHT22;6539;49.476;8.484;2023-02-01T05:56:24;7.50;99.90
12948;DHT22;6539;49.476;8.484;2023-02-01T05:58:52;7.50;99.90
12948;DHT22;6539;49.476;8.484;2023-02-01T06:01:18;7.50;99.90
12948;DHT22;6539;49.476;8.484;2023-02-01T06:03:47;7.30;99.90
12948;DHT22;6539;49.476;8.484;2023-02-01T06:06:17;7.40;99.90
12948;DHT22;6539;49.476;8.484;2023-02-01T06:08:44;7.30;99.90
12948;DHT22;6539;49.476;8.484;2023-02-01T06:11:12;7.50;99.90
12948;DHT22;6539;49.476;8.484;2023-02-01T06:13:38;7.40;99.90
12948;DHT22;6539;49.476;8.484;2023-02-01T06:16:07;7.20;99.90
12948;DHT22;6539;49.476;8.484;2023-02-01T06:18:34;7.30;99.90
12948;DHT22;6539;49.476;8.484;2023-02-01T06:21:01;7.10;99.90
12948;DHT22;6539;49.476;8.484;2023-02-01T06:23:30;7.50;99.90
12948;DHT22;6539;49.476;8.484;2023-02-01T06:26:04;7.40;99.90
12948;DHT22;6539;49.476;8.484;2023-02-01T06:28:34;7.20;99.90
12948;DHT22;6539;49.476;8.484;2023-02-01T06:31:05;7.50;99.90
12948;DHT22;6539;49.476;8.484;2023-02-01T06:33:33;7.40;99.90
12948;DHT22;6539;49.476;8.484;2023-02-01T06:36:04;7.50;99.90
12948;DHT22;6539;49.476;8.484;2023-02-01T06:38:32;7.20;99.90
12948;DHT22;6539;49.476;8.484;2023-02-01T06:41:00;7.70;99.90
12948;DHT22;6539;49.476;8.484;2023-02-01T06:43:27;7.40;99.90
12948;DHT22;6539;49.476;8.484;2023-02-01T06:46:03;7.50;99.90
12948;DHT22;6539;49.476;8.484;2023-02-01T06:48:33;7.50;99.90
12948;DHT22;6539;49.476;8.484;2023-02-01T06:51:00;7.30;99.90
12948;DHT22;6539;49.476;8.484;2023-02-01T06:53:26;7.40;99.90
12948;DHT22;6539;49.476;8.484;2023-02-01T06:58:31;7.30;99.90
12948;DHT22;6539;49.476;8.484;2023-02-01T07:01:04;7.50;99.90
12948;DHT22;6539;49.476;8.484;2023-02-01T07:03:31;7.30;99.90
12948;DHT22;6539;49.476;8.484;2023-02-01T07:05:57;7.70;99.90
12948;DHT22;6539;49.476;8.484;2023-02-01T07:08:30;7.40;99.90
12948;DHT22;6539;49.476;8.484;2023-02-01T07:11:08;7.50;99.90
12948;DHT22;6539;49.476;8.484;2023-02-01T07:13:41;7.80;99.90
12948;DHT22;6539;49.476;8.484;2023-02-01T07:16:15;7.80;99.90
12948;DHT22;6539;49.476;8.484;2023-02-01T07:18:44;7.50;99.90
12948;DHT22;6539;49.476;8.484;2023-02-01T07:21:11;7.60;99.90
12948;DHT22;6539;49.476;8.484;2023-02-01T07:23:37;7.50;99.90
12948;DHT22;6539;49.476;8.484;2023-02-01T07:26:05;7.50;99.90
12948;DHT22;6539;49.476;8.484;2023-02-01T07:28:33;7.40;99.90
12948;DHT22;6539;49.476;8.484;2023-02-01T07:31:08;7.70;99.90
12948;DHT22;6539;49.476;8.484;2023-02-01T07:33:39;8.00;99.90
12948;DHT22;6539;49.476;8.484;2023-02-01T07:36:15;7.60;99.90
12948;DHT22;6539;49.476;8.484;2023-02-01T07:38:42;7.60;99.90
12948;DHT22;6539;49.476;8.484;2023-02-01T07:41:12;7.80;99.90
12948;DHT22;6539;49.476;8.484;2023-02-01T07:43:40;7.80;99.90
12948;DHT22;6539;49.476;8.484;2023-02-01T07:46:09;7.90;99.90
12948;DHT22;6539;49.476;8.484;2023-02-01T07:48:36;7.80;99.90
12948;DHT22;6539;49.476;8.484;2023-02-01T07:51:10;7.80;99.90
12948;DHT22;6539;49.476;8.484;2023-02-01T07:53:44;7.60;99.90
12948;DHT22;6539;49.476;8.484;2023-02-01T07:56:15;8.00;99.90
12948;DHT22;6539;49.476;8.484;2023-02-01T07:58:49;8.00;99.90
12948;DHT22;6539;49.476;8.484;2023-02-01T08:01:18;8.20;99.90
12948;DHT22;6539;49.476;8.484;2023-02-01T08:03:58;7.80;99.90
12948;DHT22;6539;49.476;8.484;2023-02-01T08:06:26;7.80;99.90
12948;DHT22;6539;49.476;8.484;2023-02-01T08:08:54;8.10;99.90
12948;DHT22;6539;49.476;8.484;2023-02-01T08:11:24;8.00;99.90
12948;DHT22;6539;49.476;8.484;2023-02-01T08:13:53;7.90;99.90
12948;DHT22;6539;49.476;8.484;2023-02-01T08:16:20;8.10;99.90
12948;DHT22;6539;49.476;8.484;2023-02-01T08:18:49;7.80;99.90
12948;DHT22;6539;49.476;8.484;2023-02-01T08:21:27;7.90;99.90
12948;DHT22;6539;49.476;8.484;2023-02-01T08:24:08;7.80;99.90
12948;DHT22;6539;49.476;8.484;2023-02-01T08:26:40;8.10;99.90
12948;DHT22;6539;49.476;8.484;2023-02-01T08:29:07;7.70;99.90
12948;DHT22;6539;49.476;8.484;2023-02-01T08:31:34;8.00;99.90
12948;DHT22;6539;49.476;8.484;2023-02-01T08:34:01;7.90;99.90
12948;DHT22;6539;49.476;8.484;2023-02-01T08:36:30;7.90;99.90
12948;DHT22;6539;49.476;8.484;2023-02-01T08:38:59;7.80;99.90
12948;DHT22;6539;49.476;8.484;2023-02-01T08:41:28;7.90;99.90
12948;DHT22;6539;49.476;8.484;2023-02-01T08:43:56;7.90;99.90
12948;DHT22;6539;49.476;8.484;2023-02-01T08:46:22;7.80;99.90
12948;DHT22;6539;49.476;8.484;2023-02-01T08:48:51;8.10;99.90
12948;DHT22;6539;49.476;8.484;2023-02-01T08:51:21;8.00;99.90
12948;DHT22;6539;49.476;8.484;2023-02-01T08:53:48;7.80;99.90
12948;DHT22;6539;49.476;8.484;2023-02-01T08:56:15;8.00;99.90
12948;DHT22;6539;49.476;8.484;2023-02-01T08:58:43;8.10;99.90
12948;DHT22;6539;49.476;8.484;2023-02-01T09:01:12;7.90;99.90
12948;DHT22;6539;49.476;8.484;2023-02-01T09:03:40;7.90;99.90
12948;DHT22;6539;49.476;8.484;2023-02-01T09:06:09;7.80;99.90
12948;DHT22;6539;49.476;8.484;2023-02-01T09:08:38;7.90;99.90
12948;DHT22;6539;49.476;8.484;2023-02-01T09:11:07;8.10;99.90
12948;DHT22;6539;49.476;8.484;2023-02-01T09:13:36;8.30;99.90
12948;DHT22;6539;49.476;8.484;2023-02-01T09:16:06;8.00;99.90
12948;DHT22;6539;49.476;8.484;2023-02-01T09:18:32;8.20;99.90
12948;DHT22;6539;49.476;8.484;2023-02-01T09:21:03;8.20;99.90
12948;DHT22;6539;49.476;8.484;2023-02-01T09:23:29;8.40;99.90
12948;DHT22;6539;49.476;8.484;2023-02-01T09:26:02;8.20;99.90
12948;DHT22;6539;49.476;8.484;2023-02-01T09:28:33;8.20;99.90
12948;DHT22;6539;49.476;8.484;2023-02-01T09:30:59;8.40;99.90
12948;DHT22;6539;49.476;8.484;2023-02-01T09:33:27;8.20;99.90
12948;DHT22;6539;49.476;8.484;2023-02-01T09:36:02;8.40;99.90
12948;DHT22;6539;49.476;8.484;2023-02-01T09:38:32;8.50;99.90
12948;DHT22;6539;49.476;8.484;2023-02-01T09:41:16;8.30;99.90
12948;DHT22;6539;49.476;8.484;2023-02-01T09:46:32;8.20;99.90
12948;DHT22;6539;49.476;8.484;2023-02-01T09:49:04;8.40;99.90
12948;DHT22;6539;49.476;8.484;2023-02-01T09:51:48;8.70;99.90
12948;DHT22;6539;49.476;8.484;2023-02-01T09:54:35;8.40;99.90
12948;DHT22;6539;49.476;8.484;2023-02-01T09:57:17;8.30;99.90
12948;DHT22;6539;49.476;8.484;2023-02-01T09:59:57;8.20;99.90
12948;DHT22;6539;49.476;8.484;2023-02-01T10:02:29;8.40;99.90
12948;DHT22;6539;49.476;8.484;2023-02-01T10:05:01;8.20;99.90
12948;DHT22;6539;49.476;8.484;2023-02-01T10:07:46;8.30;99.90
12948;DHT22;6539;49.476;8.484;2023-02-01T10:10:38;8.50;99.90
12948;DHT22;6539;49.476;8.484;2023-02-01T10:16:16;8.60;99.90
12948;DHT22;6539;49.476;8.484;2023-02-01T10:19:13;8.20;99.90
12948;DHT22;6539;49.476;8.484;2023-02-01T10:21:50;8.00;99.90
12948;DHT22;6539;49.476;8.484;2023-02-01T10:24:28;8.30;99.90
12948;DHT22;6539;49.476;8.484;2023-02-01T10:29:53;8.50;99.90
12948;DHT22;6539;49.476;8.484;2023-02-01T10:32:29;8.50;99.90
12948;DHT22;6539;49.476;8.484;2023-02-01T10:35:16;8.30;99.90
12948;DHT22;6539;49.476;8.484;2023-02-01T10:37:46;8.50;99.90
12948;DHT22;6539;49.476;8.484;2023-02-01T10:40:16;8.90;99.90
12948;DHT22;6539;49.476;8.484;2023-02-01T10:42:59;8.30;99.90
12948;DHT22;6539;49.476;8.484;2023-02-01T10:45:30;8.40;99.90
12948;DHT22;6539;49.476;8.484;2023-02-01T10:48:02;8.60;99.90
12948;DHT22;6539;49.476;8.484;2023-02-01T10:50:38;8.20;99.90
12948;DHT22;6539;49.476;8.484;2023-02-01T10:53:24;8.30;99.90
12948;DHT22;6539;49.476;8.484;2023-02-01T10:56:06;8.40;99.90
12948;DHT22;6539;49.476;8.484;2023-02-01T10:58:47;8.40;99.90
12948;DHT22;6539;49.476;8.484;2023-02-01T11:01:37;8.10;99.90
12948;DHT22;6539;49.476;8.484;2023-02-01T11:04:20;8.60;99.90
12948;DHT22;6539;49.476;8.484;2023-02-01T11:06:54;8.30;99.90
12948;DHT22;6539;49.476;8.484;2023-02-01T11:09:35;8.60;99.90
12948;DHT22;6539;49.476;8.484;2023-02-01T11:12:24;8.40;99.90
12948;DHT22;6539;49.476;8.484;2023-02-01T11:15:14;8.30;99.90
12948;DHT22;6539;49.476;8.484;2023-02-01T11:17:49;8.60;99.90
12948;DHT22;6539;49.476;8.484;2023-02-01T11:20:38;8.60;99.90
12948;DHT22;6539;49.476;8.484;2023-02-01T11:23:19;8.40;99.90
12948;DHT22;6539;49.476;8.484;2023-02-01T11:25:58;8.40;99.90
12948;DHT22;6539;49.476;8.484;2023-02-01T11:28:33;8.60;99.90
12948;DHT22;6539;49.476;8.484;2023-02-01T11:31:10;8.30;99.90
12948;DHT22;6539;49.476;8.484;2023-02-01T11:33:42;8.10;99.90
12948;DHT22;6539;49.476;8.484;2023-02-01T11:36:17;8.30;99.90
12948;DHT22;6539;49.476;8.484;2023-02-01T11:38:52;8.60;99.90
12948;DHT22;6539;49.476;8.484;2023-02-01T11:41:27;8.60;99.90
12948;DHT22;6539;49.476;8.484;2023-02-01T11:46:48;8.20;99.90
12948;DHT22;6539;49.476;8.484;2023-02-01T11:52:16;8.50;99.90
12948;DHT22;6539;49.476;8.484;2023-02-01T12:18:20;8.50;99.90
12948;DHT22;6539;49.476;8.484;2023-02-01T12:33:03;8.30;99.90
12948;DHT22;6539;49.476;8.484;2023-02-01T12:42:09;8.60;99.90
12948;DHT22;6539;49.476;8.484;2023-02-01T12:47:55;8.40;99.90
12948;DHT22;6539;49.476;8.484;2023-02-01T12:50:38;8.40;99.90
12948;DHT22;6539;49.476;8.484;2023-02-01T12:53:28;8.70;99.90
12948;DHT22;6539;49.476;8.484;2023-02-01T12:56:01;8.40;99.90
12948;DHT22;6539;49.476;8.484;2023-02-01T12:58:50;8.80;99.90
12948;DHT22;6539;49.476;8.484;2023-02-01T13:04:36;8.70;99.90
12948;DHT22;6539;49.476;8.484;2023-02-01T13:07:13;8.30;99.90
12948;DHT22;6539;49.476;8.484;2023-02-01T13:12:33;8.40;99.90
12948;DHT22;6539;49.476;8.484;2023-02-01T13:15:27;8.60;99.90
12948;DHT22;6539;49.476;8.484;2023-02-01T13:18:02;8.40;99.90
12948;DHT22;6539;49.476;8.484;2023-02-01T13:20:49;8.70;99.90
12948;DHT22;6539;49.476;8.484;2023-02-01T13:23:32;8.60;99.90
12948;DHT22;6539;49.476;8.484;2023-02-01T13:26:04;8.40;99.90
12948;DHT22;6539;49.476;8.484;2023-02-01T13:28:44;8.60;99.90
12948;DHT22;6539;49.476;8.484;2023-02-01T13:38:05;8.60;99.90
12948;DHT22;6539;49.476;8.484;2023-02-01T13:41:02;8.50;99.90
12948;DHT22;6539;49.476;8.484;2023-02-01T13:43:55;8.50;99.90
12948;DHT22;6539;49.476;8.484;2023-02-01T13:46:45;8.60;99.90
12948;DHT22;6539;49.476;8.484;2023-02-01T13:49:27;8.60;99.90
12948;DHT22;6539;49.476;8.484;2023-02-01T13:51:57;8.70;99.90
12948;DHT22;6539;49.476;8.484;2023-02-01T13:54:38;8.30;99.90
12948;DHT22;6539;49.476;8.484;2023-02-01T13:57:36;8.40;99.90
12948;DHT22;6539;49.476;8.484;2023-02-01T14:00:23;8.50;99.90
12948;DHT22;6539;49.476;8.484;2023-02-01T14:10:58;8.60;99.90
12948;DHT22;6539;49.476;8.484;2023-02-01T14:21:31;8.70;99.90
12948;DHT22;6539;49.476;8.484;2023-02-01T14:26:40;8.60;99.90
12948;DHT22;6539;49.476;8.484;2023-02-01T14:55:46;8.90;99.90
12948;DHT22;6539;49.476;8.484;2023-02-01T15:01:15;8.50;99.90
12948;DHT22;6539;49.476;8.484;2023-02-01T15:06:53;8.70;99.90
12948;DHT22;6539;49.476;8.484;2023-02-01T15:20:15;8.60;99.90
12948;DHT22;6539;49.476;8.484;2023-02-01T15:25:28;8.80;99.90
12948;DHT22;6539;49.476;8.484;2023-02-01T15:27:57;8.70;99.90
12948;DHT22;6539;49.476;8.484;2023-02-01T15:30:29;9.00;99.90
12948;DHT22;6539;49.476;8.484;2023-02-01T15:35:49;9.00;99.90
12948;DHT22;6539;49.476;8.484;2023-02-01T15:43:44;8.60;99.90
12948;DHT22;6539;49.476;8.484;2023-02-01T15:46:40;8.90;99.90
12948;DHT22;6539;49.476;8.484;2023-02-01T15:51:53;8.90;99.90
12948;DHT22;6539;49.476;8.484;2023-02-01T15:54:28;8.60;99.90
12948;DHT22;6539;49.476;8.484;2023-02-01T15:59:41;8.60;99.90
12948;DHT22;6539;49.476;8.484;2023-02-01T16:05:42;8.70;99.90
12948;DHT22;6539;49.476;8.484;2023-02-01T16:10:45;8.70;99.90
12948;DHT22;6539;49.476;8.484;2023-02-01T16:13:27;8.70;99.90
12948;DHT22;6539;49.476;8.484;2023-02-01T16:18:19;8.70;99.90
12948;DHT22;6539;49.476;8.484;2023-02-01T16:20:46;8.80;99.90
12948;DHT22;6539;49.476;8.484;2023-02-01T16:23:12;8.70;99.90
12948;DHT22;6539;49.476;8.484;2023-02-01T16:25:40;8.70;99.90
12948;DHT22;6539;49.476;8.484;2023-02-01T16:28:09;8.50;99.90
12948;DHT22;6539;49.476;8.484;2023-02-01T16:30:35;8.60;99.90
12948;DHT22;6539;49.476;8.484;2023-02-01T16:33:15;8.70;99.90
12948;DHT22;6539;49.476;8.484;2023-02-01T16:35:48;8.30;99.90
12948;DHT22;6539;49.476;8.484;2023-02-01T16:38:19;8.70;99.90
12948;DHT22;6539;49.476;8.484;2023-02-01T16:40:49;8.80;99.90
12948;DHT22;6539;49.476;8.484;2023-02-01T16:43:19;8.60;99.90
12948;DHT22;6539;49.476;8.484;2023-02-01T16:45:48;8.60;99.90
12948;DHT22;6539;49.476;8.484;2023-02-01T16:48:25;8.30;99.90
12948;DHT22;6539;49.476;8.484;2023-02-01T16:50:54;8.70;99.90
12948;DHT22;6539;49.476;8.484;2023-02-01T16:53:24;8.60;99.90
12948;DHT22;6539;49.476;8.484;2023-02-01T16:55:53;9.00;99.90
12948;DHT22;6539;49.476;8.484;2023-02-01T16:58:20;8.70;99.90
12948;DHT22;6539;49.476;8.484;2023-02-01T17:00:49;8.60;99.90
12948;DHT22;6539;49.476;8.484;2023-02-01T17:03:19;8.70;99.90
12948;DHT22;6539;49.476;8.484;2023-02-01T17:05:50;8.40;99.90
12948;DHT22;6539;49.476;8.484;2023-02-01T17:08:31;8.40;99.90
12948;DHT22;6539;49.476;8.484;2023-02-01T17:11:03;8.50;99.90
12948;DHT22;6539;49.476;8.484;2023-02-01T17:13:30;8.80;99.90
12948;DHT22;6539;49.476;8.484;2023-02-01T17:16:16;8.60;99.90
12948;DHT22;6539;49.476;8.484;2023-02-01T17:19:04;8.80;99.90
12948;DHT22;6539;49.476;8.484;2023-02-01T17:21:39;8.40;99.90
12948;DHT22;6539;49.476;8.484;2023-02-01T17:24:15;8.80;99.90
12948;DHT22;6539;49.476;8.484;2023-02-01T17:26:45;8.60;99.90
12948;DHT22;6539;49.476;8.484;2023-02-01T17:29:12;8.50;99.90
12948;DHT22;6539;49.476;8.484;2023-02-01T17:31:41;8.50;99.90
12948;DHT22;6539;49.476;8.484;2023-02-01T17:34:11;8.60;99.90
12948;DHT22;6539;49.476;8.484;2023-02-01T17:36:40;8.50;99.90
12948;DHT22;6539;49.476;8.484;2023-02-01T17:39:07;8.50;99.90
12948;DHT22;6539;49.476;8.484;2023-02-01T17:41:35;8.70;99.90
12948;DHT22;6539;49.476;8.484;2023-02-01T17:44:03;8.30;99.90
12948;DHT22;6539;49.476;8.484;2023-02-01T17:46:30;8.30;99.90
12948;DHT22;6539;49.476;8.484;2023-02-01T17:51:25;8.40;99.90
12948;DHT22;6539;49.476;8.484;2023-02-01T17:53:53;8.50;99.90
12948;DHT22;6539;49.476;8.484;2023-02-01T17:56:20;8.20;99.90
12948;DHT22;6539;49.476;8.484;2023-02-01T17:58:51;8.40;99.90
12948;DHT22;6539;49.476;8.484;2023-02-01T18:01:23;8.30;99.90
12948;DHT22;6539;49.476;8.484;2023-02-01T18:03:50;8.00;99.90
12948;DHT22;6539;49.476;8.484;2023-02-01T18:06:18;8.20;99.90
12948;DHT22;6539;49.476;8.484;2023-02-01T18:08:51;8.00;99.90
12948;DHT22;6539;49.476;8.484;2023-02-01T18:11:20;8.30;99.90
12948;DHT22;6539;49.476;8.484;2023-02-01T18:13:50;8.20;99.90
12948;DHT22;6539;49.476;8.484;2023-02-01T18:16:22;8.40;99.90
12948;DHT22;6539;49.476;8.484;2023-02-01T18:18:52;8.40;99.90
12948;DHT22;6539;49.476;8.484;2023-02-01T18:21:28;8.20;99.90
12948;DHT22;6539;49.476;8.484;2023-02-01T18:24:14;8.20;99.90
12948;DHT22;6539;49.476;8.484;2023-02-01T18:26:42;8.70;99.90
12948;DHT22;6539;49.476;8.484;2023-02-01T18:29:09;8.10;99.90
12948;DHT22;6539;49.476;8.484;2023-02-01T18:31:40;8.00;99.90
12948;DHT22;6539;49.476;8.484;2023-02-01T18:34:12;8.20;99.90
12948;DHT22;6539;49.476;8.484;2023-02-01T18:36:48;8.30;99.90
12948;DHT22;6539;49.476;8.484;2023-02-01T18:39:16;8.10;99.90
12948;DHT22;6539;49.476;8.484;2023-02-01T18:41:46;8.20;99.90
12948;DHT22;6539;49.476;8.484;2023-02-01T18:44:14;8.30;99.90
12948;DHT22;6539;49.476;8.484;2023-02-01T18:46:43;8.20;99.90
12948;DHT22;6539;49.476;8.484;2023-02-01T18:49:10;8.00;99.90
12948;DHT22;6539;49.476;8.484;2023-02-01T18:51:44;8.30;99.90
12948;DHT22;6539;49.476;8.484;2023-02-01T18:54:11;8.40;99.90
12948;DHT22;6539;49.476;8.484;2023-02-01T18:56:37;8.10;99.90
12948;DHT22;6539;49.476;8.484;2023-02-01T18:59:03;8.20;99.90
12948;DHT22;6539;49.476;8.484;2023-02-01T19:06:24;8.10;99.90
12948;DHT22;6539;49.476;8.484;2023-02-01T19:08:53;8.10;99.90
12948;DHT22;6539;49.476;8.484;2023-02-01T19:11:21;8.30;99.90
12948;DHT22;6539;49.476;8.484;2023-02-01T19:13:49;8.10;99.90
12948;DHT22;6539;49.476;8.484;2023-02-01T19:16:15;8.10;99.90
12948;DHT22;6539;49.476;8.484;2023-02-01T19:18:41;8.30;99.90
12948;DHT22;6539;49.476;8.484;2023-02-01T19:21:09;8.10;99.90
12948;DHT22;6539;49.476;8.484;2023-02-01T19:23:38;8.20;99.90
12948;DHT22;6539;49.476;8.484;2023-02-01T19:26:12;8.00;99.90
12948;DHT22;6539;49.476;8.484;2023-02-01T19:28:41;8.10;99.90
12948;DHT22;6539;49.476;8.484;2023-02-01T19:31:14;8.30;99.90
12948;DHT22;6539;49.476;8.484;2023-02-01T19:33:42;8.30;99.90
12948;DHT22;6539;49.476;8.484;2023-02-01T19:36:08;8.30;99.90
12948;DHT22;6539;49.476;8.484;2023-02-01T19:38:35;8.10;99.90
12948;DHT22;6539;49.476;8.484;2023-02-01T19:41:04;7.80;99.90
12948;DHT22;6539;49.476;8.484;2023-02-01T19:43:30;8.10;99.90
12948;DHT22;6539;49.476;8.484;2023-02-01T19:45:56;8.20;99.90
12948;DHT22;6539;49.476;8.484;2023-02-01T19:48:24;8.20;99.90
12948;DHT22;6539;49.476;8.484;2023-02-01T19:50:50;8.20;99.90
12948;DHT22;6539;49.476;8.484;2023-02-01T19:53:18;7.90;99.90
12948;DHT22;6539;49.476;8.484;2023-02-01T19:55:48;8.40;99.90
12948;DHT22;6539;49.476;8.484;2023-02-01T19:58:17;8.30;99.90
12948;DHT22;6539;49.476;8.484;2023-02-01T20:00:50;8.30;99.90
12948;DHT22;6539;49.476;8.484;2023-02-01T20:05:43;8.00;99.90
12948;DHT22;6539;49.476;8.484;2023-02-01T20:08:09;8.30;99.90
12948;DHT22;6539;49.476;8.484;2023-02-01T20:10:42;8.10;99.90
12948;DHT22;6539;49.476;8.484;2023-02-01T20:13:09;8.20;99.90
12948;DHT22;6539;49.476;8.484;2023-02-01T20:15:35;8.20;99.90
12948;DHT22;6539;49.476;8.484;2023-02-01T20:20:32;8.20;99.90
12948;DHT22;6539;49.476;8.484;2023-02-01T20:22:57;8.40;99.90
12948;DHT22;6539;49.476;8.484;2023-02-01T20:27:54;8.40;99.90
12948;DHT22;6539;49.476;8.484;2023-02-01T20:30:22;8.40;99.90